• Join FlightAware (Why Join?)
  • Login
  • US Flag 
11:30PM EDT


 

Airport Tracker/Info


-or-


 

Live Flight TrackerFlight Track Log ✈ UAL341 ✈ 29-Apr-2013 ✈ KIAH - KPHX

Flight Track Log - Related Links

Times and Time Zones

All times are in EDT time to prevent confusion due to time zone crossing. See the UAL341 flight status page for this flight to view local times or setup timezone preferences in your user account.

Time Position Orientation Groundspeed Altitude Reporting Facility
EDT Latitude Longitude Course Direction KTS MPH feet Rate Location/Type
10:49AM 29.9597 -95.3439 276° West 173 199 800  Level Houston Center
10:50AM 29.9178 -95.3897 223° Southwest 230 265 3,500 1,860 Climbing Houston Center
10:51AM 29.8950 -95.4242 233° Southwest 226 260 4,000 480 Climbing Houston Center
10:51AM 29.8733 -95.4578 233° Southwest 271 312 4,000 660 Level Houston Center
10:52AM 29.8506 -95.4931 233° Southwest 260 299 4,700 2,400 Climbing Houston Center
10:52AM 29.8281 -95.5356 239° Southwest 271 312 6,700 3,180 Climbing Houston Center
10:53AM 30.0354 -95.8251 276° West  Level FlightAware Approximate
10:53AM 29.8336 -95.5722 280° West 282 325 8,000  Level Houston Center
10:54AM 30.0457 -95.9487 276° West  Level FlightAware Approximate
10:54AM 29.8767 -95.6744 296° West 293 337 11,000  Level Houston Center
10:55AM 29.9161 -95.7767 294° West 344 396 13,700 2,220 Climbing Houston Center
10:56AM 29.9611 -95.8878 295° West 384 442 15,700 1,980 Climbing Houston Center
10:57AM 30.0069 -96.0056 294° West 400 460 17,800 1,920 Climbing Houston Center
10:58AM 30.0586 -96.1375 294° West 429 494 19,800 2,040 Climbing Houston Center
10:59AM 30.1033 -96.2697 291° West 442 509 22,100 2,100 Climbing Houston Center
11:00AM 30.1275 -96.4269 280° West 446 513 24,200 1,740 Climbing Houston Center
11:01AM 30.1486 -96.5739 279° West 458 527 25,800 1,500 Climbing Houston Center
11:02AM 30.1711 -96.7250 280° West 469 540 27,300 1,740 Climbing Houston Center
11:03AM 30.1942 -96.8775 280° West 474 545 29,500 2,160 Climbing Houston Center
11:04AM 30.2158 -97.0233 280° West 460 529 31,800 2,280 Climbing Houston Center
11:05AM 30.2394 -97.1853 280° West 437 503 34,300 1,860 Climbing Houston Center
11:06AM 30.2594 -97.3206 280° West 425 489 35,700 780 Climbing Houston Center
11:07AM 30.2792 -97.4542 280° West 418 481 36,000 120 Climbing Houston Center
11:08AM 30.2981 -97.5889 279° West 419 482 36,000  Level Houston Center
11:09AM 30.3175 -97.7247 279° West 422 486 36,000  Level Houston Center
11:10AM 30.3369 -97.8608 279° West 423 487 36,000  Level Houston Center
11:12AM 30.3561 -97.9956 279° West 421 484 36,000  Level Houston Center
11:13AM 30.3786 -98.1558 279° West 426 490 36,000  Level Houston Center
11:14AM 30.3972 -98.2928 279° West 428 493 36,000  Level Houston Center
11:15AM 30.4156 -98.4303 279° West 427 491 36,000  Level Houston Center
11:16AM 30.4336 -98.5675 279° West 427 491 36,000  Level Houston Center
11:17AM 30.4517 -98.7067 279° West 431 496 36,000  Level Houston Center
11:18AM 30.4706 -98.8456 279° West 432 497 36,000  Level Houston Center
11:19AM 30.4903 -98.9839 279° West 431 496 36,000  Level Houston Center
11:20AM 30.5111 -99.1381 279° West 433 498 36,000  Level Houston Center
11:21AM 30.5294 -99.2742 279° West 430 495 36,000  Level Houston Center
11:22AM 30.5472 -99.4108 279° West 430 495 36,000  Level Houston Center
11:23AM 30.5650 -99.5469 279° West 430 495 36,000  Level Houston Center
11:24AM 30.5856 -99.7094 278° West 428 493 36,000  Level Houston Center
11:25AM 30.6036 -99.8447 279° West 429 494 36,000  Level Houston Center
11:26AM 30.6197 -99.9803 278° West 428 493 36,000  Level Houston Center
11:27AM 30.6361 -100.1150 278° West 427 491 36,000  Level Houston Center
11:28AM 30.6528 -100.2503 278° West 427 491 36,000  Level Houston Center
11:29AM 30.6717 -100.4133 278° West 427 491 36,000  Level Houston Center
11:30AM 30.6878 -100.5514 278° West 432 497 36,000  Level Houston Center
11:31AM 30.7036 -100.6878 278° West 430 495 36,000  Level Houston Center
11:32AM 30.7200 -100.8244 278° West 429 494 36,000  Level Houston Center
11:33AM 30.7503 -100.9583 285° West 430 495 36,000  Level Houston Center
11:34AM 30.7900 -101.1194 286° West 432 497 36,000  Level Houston Center
11:35AM 30.8219 -101.2533 286° West 431 496 36,000  Level Houston Center
11:36AM 30.8547 -101.3878 286° West 433 498 36,000  Level Houston Center
11:37AM 30.8861 -101.5233 285° West 434 499 36,000 -60 Level Houston Center
11:38AM 30.9192 -101.6586 286° West 435 501 35,900  Descending Houston Center
11:39AM 30.9575 -101.8217 285° West 435 501 36,000  Climbing Houston Center
11:41AM 30.9894 -101.9567 285° West 435 501 36,000  Level Houston Center
11:42AM 31.0247 -102.0939 287° West 438 504 36,000  Level Houston Center
11:43AM 31.0714 -102.2469 290° West 439 505 36,000  Level Albuquerque Center
11:44AM 31.1119 -102.3819 289° West 440 506 36,000  Level Albuquerque Center
11:45AM 31.1511 -102.5169 289° West 440 506 36,000  Level Albuquerque Center
11:46AM 31.1986 -102.6803 289° West 441 507 36,000  Level Albuquerque Center
11:47AM 31.2383 -102.8164 289° West 441 507 36,000  Level Albuquerque Center
11:48AM 31.2772 -102.9519 289° West 441 507 36,000  Level Albuquerque Center
11:49AM 31.3167 -103.0864 289° West 438 504 36,000  Level Albuquerque Center
11:50AM 31.3533 -103.2200 288° West 433 498 36,000  Level Albuquerque Center
11:51AM 31.3919 -103.3539 289° West 434 499 36,000  Level Albuquerque Center
11:52AM 31.4336 -103.5017 288° West 432 497 36,000  Level Albuquerque Center
11:53AM 31.4722 -103.6369 289° West 436 502 36,000  Level Albuquerque Center
11:54AM 31.5103 -103.7719 288° West 438 504 36,000  Level Albuquerque Center
11:55AM 31.5483 -103.9069 288° West 439 505 36,000  Level Albuquerque Center
11:56AM 31.5936 -104.0689 288° West 438 504 36,000  Level Albuquerque Center
11:57AM 31.6306 -104.2053 288° West 440 506 36,000 -60 Level Albuquerque Center
11:58AM 31.6689 -104.3428 288° West 443 510 35,900  Descending Albuquerque Center
11:59AM 31.7053 -104.4797 287° West 443 510 36,000  Climbing Albuquerque Center
12:00PM 31.7439 -104.6178 288° West 446 513 36,000  Level Albuquerque Center
12:01PM 31.7806 -104.7556 287° West 446 513 36,000  Level Albuquerque Center
12:02PM 31.8256 -104.9214 288° West 446 513 36,000  Level Albuquerque Center
12:03PM 31.8617 -105.0600 287° West 445 512 36,000  Level Albuquerque Center
12:04PM 31.8992 -105.1975 288° West 444 511 36,000  Level Albuquerque Center
12:05PM 31.9325 -105.3347 286° West 441 507 36,000  Level Albuquerque Center
12:06PM 31.9389 -105.4789 273° West 443 510 36,000  Level Albuquerque Center
12:08PM 31.9403 -105.6514 271° West 442 509 36,000 -60 Level Albuquerque Center
12:09PM 31.9433 -105.7950 271° West 442 509 35,900  Descending Albuquerque Center
12:10PM 31.9456 -105.9458 271° West 439 505 36,000  Climbing Albuquerque Center
12:11PM 31.9483 -106.1000 271° West 439 505 36,000  Level Albuquerque Center
12:12PM 31.9511 -106.2169 272° West 437 503 36,000  Level Albuquerque Center
12:13PM 31.9667 -106.3894 276° West 444 511 36,000  Level Albuquerque Center
12:14PM 31.9828 -106.5319 278° West 439 505 36,000  Level Albuquerque Center
12:15PM 32.0000 -106.6742 278° West 439 505 36,000  Level Albuquerque Center
12:16PM 32.0167 -106.8178 278° West 440 506 36,000  Level Albuquerque Center
12:17PM 32.0336 -106.9628 278° West 444 511 36,000  Level Albuquerque Center
12:18PM 32.0492 -107.1083 277° West 445 512 36,000 -60 Level Albuquerque Center
12:19PM 32.0650 -107.2531 277° West 444 511 35,900  Descending Albuquerque Center
12:20PM 32.0839 -107.4283 277° West 445 512 36,000  Climbing Albuquerque Center
12:21PM 32.0986 -107.5747 277° West 448 516 36,000  Level Albuquerque Center
12:22PM 32.1147 -107.7211 277° West 447 514 36,000  Level Albuquerque Center
12:23PM 32.1297 -107.8675 277° West 449 517 36,000  Level Albuquerque Center
12:24PM 32.1444 -108.0139 277° West 449 517 36,000  Level Albuquerque Center
12:25PM 32.1625 -108.1794 277° West 450 518 36,000 -60 Level Albuquerque Center
12:26PM 32.1756 -108.3072 277° West 450 518 35,900 -780 Descending Albuquerque Center
12:27PM 32.1928 -108.4700 277° West 448 516 34,500 -660 Descending Albuquerque Center
12:29PM 32.2104 -108.6502 277° West  Level FlightAware Approximate
12:29PM 32.2208 -108.7708 277° West 462 532 34,000  Level Albuquerque Center
12:30PM 32.2394 -108.9522 277° West 465 535 34,000  Level Albuquerque Center
12:31PM 32.2533 -109.1022 276° West 462 532 34,000  Level Albuquerque Center
12:32PM 32.2681 -109.2531 277° West 463 533 34,000  Level Albuquerque Center
12:33PM 32.3011 -109.3986 285° West 461 531 34,000  Level Albuquerque Center
12:34PM 32.3358 -109.5419 286° West 459 528 34,000  Level Albuquerque Center
12:35PM 32.3711 -109.6853 286° West 457 526 34,000  Level Albuquerque Center
12:36PM 32.4136 -109.8603 286° West 463 533 34,000 -540 Level Albuquerque Center
12:37PM 32.4497 -110.0042 287° West 462 532 32,900 -1,440 Descending Albuquerque Center
12:39PM 32.4822 -110.1461 285° West 454 522 31,100 -1,980 Descending Albuquerque Center
12:40PM 32.5167 -110.2858 286° West 449 517 28,900 -2,160 Descending Albuquerque Center
12:41PM 32.5475 -110.4211 285° West 439 505 26,700 -2,280 Descending Albuquerque Center
12:42PM 32.5861 -110.5792 286° West 424 488 24,200 -1,800 Descending Albuquerque Center
12:43PM 32.6433 -110.6922 301° West 399 459 23,000 -1,080 Descending Albuquerque Center
12:44PM 32.7025 -110.8014 303° West 394 453 22,000 -1,020 Descending Albuquerque Center
12:45PM 32.7608 -110.9097 303° West 390 449 20,900 -1,020 Descending Albuquerque Center
12:46PM 32.8167 -111.0158 302° West 383 441 19,900 -1,020 Descending Albuquerque Center
12:47PM 32.8711 -111.1225 301° West 379 436 18,900 -1,320 Descending Albuquerque Center
12:48PM 32.9283 -111.2442 299° West 350 403 17,200 -1,500 Descending Albuquerque Center
12:49PM 32.9731 -111.3414 299° West 335 386 15,800 -1,380 Descending Albuquerque Center
12:50PM 33.0153 -111.4311 299° West 314 361 14,400 -1,440 Descending Albuquerque Center
12:51PM 33.0606 -111.5158 303° West 306 352 12,900 -1,380 Descending Albuquerque Center
12:52PM 33.1036 -111.6011 301° West 301 346 11,600 -1,020 Descending Albuquerque Center
12:53PM 33.1475 -111.6883 301° West 305 351 10,900 -780 Descending Albuquerque Center
12:54PM 33.1983 -111.7883 301° West 294 338 10,000 -720 Descending Albuquerque Center
12:55PM 33.2381 -111.8675 301° West 281 323 9,500 -480 Descending Albuquerque Center
12:56PM 33.2769 -111.9431 302° West 269 310 9,100 -720 Descending Albuquerque Center
12:57PM 33.3114 -112.0111 301° West 244 281 8,000 -1,080 Descending Albuquerque Center
12:58PM 33.3442 -112.0797 300° West 237 273 6,900 -1,080 Descending Albuquerque Center
12:59PM 33.3442 -112.1572 270° West 233 268 5,800 -1,020 Descending Albuquerque Center
01:00PM 33.3772 -112.2056 309° West 228 262 4,800 -1,080 Descending Albuquerque Center
01:01PM 33.4244 -112.1542 42° Northeast 214 246 3,600 -1,200 Descending Albuquerque Center